createdAt,value
2022-12-20T00:01:18.256Z,6.716421087109848
2022-12-20T00:04:16.458Z,6.720274598244577
2022-12-20T00:07:16.387Z,6.70678730998925
2022-12-20T00:11:15.975Z,6.660545194053066
2022-12-20T00:14:16.808Z,6.650911422866921
2022-12-20T00:17:16.246Z,6.629717129859
2022-12-20T00:21:16.631Z,6.641919904016322
2022-12-20T00:24:22.237Z,6.609165092883723
2022-12-20T00:27:17.051Z,6.611734097250974
2022-12-20T00:31:18.552Z,6.571272286918247
2022-12-20T00:34:16.721Z,6.525030240067281
2022-12-20T00:37:16.718Z,6.462089714178364
2022-12-20T00:41:18.616Z,6.490348720399561
2022-12-20T00:44:17.117Z,6.455667213992274
2022-12-20T00:47:16.977Z,6.412636474475676
2022-12-20T00:51:19.308Z,6.426123718993404
2022-12-20T00:54:16.913Z,6.39786473278109
2022-12-20T00:57:16.853Z,6.404287228874455
2022-12-20T01:01:20.620Z,6.453740464025122
2022-12-20T01:04:16.749Z,6.451813714098899
2022-12-20T01:07:16.695Z,6.412636474475676
2022-12-20T01:11:20.473Z,6.440895465290032
2022-12-20T01:14:17.598Z,6.4563094639904195
2022-12-20T01:17:18.671Z,6.415847722988474
2022-12-20T01:21:18.843Z,6.411994224786758
2022-12-20T01:24:18.453Z,6.408782976410384
2022-12-20T01:27:16.896Z,6.410709725422566
2022-12-20T01:31:18.573Z,6.39015773806932
2022-12-20T01:34:16.284Z,6.405571728147697
2022-12-20T01:37:17.325Z,6.3837352429764
2022-12-20T01:41:17.832Z,6.366394508496978
2022-12-20T01:44:57.107Z,6.3599720150866235
2022-12-20T01:47:17.079Z,6.329786302149296
2022-12-20T01:51:18.334Z,6.318225819003783
2022-12-20T01:54:21.821Z,6.338135540892926
2022-12-20T01:57:20.744Z,6.3028118437683585
2022-12-20T02:01:16.681Z,6.316299071956109
2022-12-20T02:04:17.079Z,6.366394508496978
2022-12-20T02:07:23.159Z,6.3670367578630245
2022-12-20T02:11:34.695Z,6.37024800476147
2022-12-20T02:14:31.476Z,6.3580452671521925
2022-12-20T02:17:30.415Z,6.33942003922939
2022-12-20T02:21:27.102Z,6.3188680680287685
2022-12-20T02:24:52.085Z,6.301527345950308
2022-12-20T02:27:42.104Z,6.316299071956109
2022-12-20T02:31:24.823Z,6.2931781105763545
2022-12-20T02:34:17.486Z,6.290609115231291
2022-12-20T02:37:16.817Z,6.285471124759442
2022-12-20T02:41:23.123Z,6.280975383335317
2022-12-20T02:45:28.929Z,6.230879993969938
2022-12-20T02:47:20.936Z,6.246293956981754
2022-12-20T02:51:19.606Z,6.25014744814398
2022-12-20T02:54:18.295Z,6.218035026794314
2022-12-20T02:57:22.086Z,6.153167970344748
2022-12-20T03:01:22.798Z,6.173719904001428
2022-12-20T03:04:20.076Z,6.144176500834237
2022-12-20T03:07:17.300Z,6.133258289055448
2022-12-20T03:11:16.987Z,6.160232697013998
2022-12-20T03:14:17.219Z,6.125551316826386
2022-12-20T03:17:17.133Z,6.0844474759975125
2022-12-20T03:21:16.479Z,6.093438939587213
2022-12-20T03:24:17.636Z,6.091512197314387
2022-12-20T03:27:17.092Z,6.090227702488574
2022-12-20T03:31:16.667Z,6.081236239217196
2022-12-20T03:34:16.933Z,6.110779621884376
2022-12-20T03:37:16.850Z,6.123624573871439
2022-12-20T03:41:16.599Z,6.082520733915681
2022-12-20T03:44:16.558Z,6.0349944421862345
2022-12-20T03:47:16.670Z,6.04783938344126
2022-12-20T03:51:16.796Z,6.043343653795091
2022-12-20T03:54:18.303Z,6.059399832126019
2022-12-20T03:57:17.197Z,6.016369280597428
2022-12-20T04:01:18.065Z,6.015727033714302
2022-12-20T04:04:16.175Z,6.003524343798927
2022-12-20T04:07:16.377Z,6.025360737438677
2022-12-20T04:11:17.086Z,6.049123877666807
2022-12-20T04:14:16.584Z,6.031783207156695
2022-12-20T04:17:16.277Z,6.016369280597428
2022-12-20T04:21:21.766Z,6.021507255826146
2022-12-20T04:24:17.043Z,6.042059159651399
2022-12-20T04:27:17.025Z,6.0195805150812705
2022-12-20T04:31:23.305Z,6.051692866172471
2022-12-20T04:34:16.978Z,6.030498713176712
2022-12-20T04:37:16.935Z,5.993890642393763
2022-12-20T04:41:22.943Z,6.056830843402077
2022-12-20T04:44:16.718Z,6.020222761991681
2022-12-20T04:47:16.591Z,5.982330202058165
2022-12-20T04:51:17.157Z,5.997101876081797
2022-12-20T04:54:17.259Z,5.954071354107237
2022-12-20T04:57:17.316Z,5.932877223921605
2022-12-20T05:01:17.399Z,5.9444376579544045
2022-12-20T05:04:16.971Z,5.908471868024208
2022-12-20T05:07:16.871Z,5.937372948092616
2022-12-20T05:11:16.751Z,5.877644059434533
2022-12-20T05:14:16.588Z,5.840393804700943
2022-12-20T05:17:16.663Z,5.823695419613796
2022-12-20T05:31:16.203Z,5.788371922828174
2022-12-20T05:34:16.372Z,5.774242527965635
2022-12-20T05:37:16.280Z,5.752406194779996
2022-12-20T05:41:16.366Z,5.803143565265055
2022-12-20T05:44:16.970Z,5.751763949765882
2022-12-20T05:47:16.881Z,5.713871501982157
2022-12-20T05:51:16.275Z,5.738276805519945
2022-12-20T05:54:16.742Z,5.736350070791377
2022-12-20T05:57:16.643Z,5.693319672517191
2022-12-20T06:01:16.381Z,5.711302523044378
2022-12-20T06:04:16.676Z,5.6836860040584725
2022-12-20T06:07:16.823Z,5.648362561797057
2022-12-20T06:11:16.546Z,5.691392938743593
2022-12-20T06:14:16.402Z,5.665703159006443
2022-12-20T06:17:16.625Z,5.684328248590555
2022-12-20T06:21:16.619Z,5.70038436337054
2022-12-20T06:24:16.916Z,5.701668852675721
2022-12-20T06:27:18.696Z,5.688181715878545
2022-12-20T06:31:16.535Z,5.690108449583931
2022-12-20T06:34:16.948Z,5.715155991478332
2022-12-20T06:37:16.812Z,5.690750694161489
2022-12-20T06:41:15.967Z,5.661207448300502
2022-12-20T06:44:16.476Z,5.66249193705089
2022-12-20T06:47:16.674Z,5.636159921303625
2022-12-20T06:51:17.532Z,5.62331503834721
2022-12-20T06:54:16.444Z,5.633590944566822
2022-12-20T06:57:16.565Z,5.631664212061969
2022-12-20T07:01:17.168Z,5.630379723748137
2022-12-20T07:04:16.967Z,5.5899183511734005
2022-12-20T07:07:17.647Z,5.567439818653019
2022-12-20T07:11:16.833Z,5.629095235452496
2022-12-20T07:14:17.091Z,5.605332205264131
2022-12-20T07:17:17.247Z,5.627810747175045
2022-12-20T07:21:18.653Z,5.63102196790278
2022-12-20T07:24:17.298Z,5.678548047965523
2022-12-20T07:27:18.223Z,5.70038436337054
2022-12-20T07:31:16.184Z,5.722220684032436
2022-12-20T07:34:16.523Z,5.721578439232053
2022-12-20T07:37:16.538Z,5.7055223207004016
2022-12-20T07:41:17.527Z,5.736350070791377
2022-12-20T07:44:16.727Z,5.768462321610786
2022-12-20T07:47:16.715Z,5.779380489479172
2022-12-20T07:51:20.705Z,5.837824822179755
2022-12-20T07:54:22.108Z,5.831402366195107
2022-12-20T07:57:22.092Z,5.868010371398941
2022-12-20T08:01:16.551Z,5.911040852546284
2022-12-20T08:04:20.268Z,5.975265489245066
2022-12-20T08:07:17.652Z,6.015727033714302
2022-12-20T08:11:18.829Z,6.089585455082488
2022-12-20T08:14:18.770Z,6.159590449112239
2022-12-20T08:17:16.959Z,6.228953248777634
2022-12-20T08:21:16.666Z,6.331070800367525
2022-12-20T08:24:16.950Z,6.413278724169141
2022-12-20T08:27:17.183Z,6.473007965538363
2022-12-20T08:31:16.768Z,6.562280775962063
2022-12-20T08:34:17.433Z,6.636781893644729
2022-12-20T08:37:16.995Z,6.736973148386824
2022-12-20T08:41:16.038Z,6.862212372440354
2022-12-20T08:44:16.301Z,6.9322179627666625
2022-12-20T08:47:16.260Z,7.0092883999201145
2022-12-20T08:51:16.782Z,7.120398395403117
2022-12-20T08:54:17.998Z,7.203249289863743
2022-12-20T08:57:16.923Z,7.308579218435625
2022-12-20T09:01:19.560Z,7.408128958474208
2022-12-20T09:04:16.945Z,7.519881700034693
2022-12-20T09:07:16.857Z,7.613651348032818
2022-12-20T09:11:19.383Z,7.749167928399766
2022-12-20T09:14:18.146Z,7.833946176409154
2022-12-20T09:17:17.350Z,7.920651284739233
2022-12-20T09:21:16.592Z,8.049745710700881
2022-12-20T09:24:17.767Z,8.135808763410022
2022-12-20T09:27:16.624Z,8.227009997930509
2022-12-20T09:31:19.322Z,8.385006719827652
2022-12-20T09:34:17.346Z,8.478777262141012
2022-12-20T09:37:17.336Z,8.56548298683565
2022-12-20T09:41:26.030Z,8.699716457428076
2022-12-20T09:44:23.381Z,8.812755323574311
2022-12-20T09:47:20.517Z,8.857071735671434
2022-12-20T09:51:28.671Z,8.982313886910925
2022-12-20T09:54:29.029Z,9.090857224523006
2022-12-20T09:57:28.168Z,9.222522394178668
2022-12-20T10:01:25.003Z,9.404284869227649
2022-12-20T10:04:21.905Z,9.525674145505764
2022-12-20T10:07:30.895Z,9.6830308565216
2022-12-20T10:11:42.028Z,9.877639737889695
2022-12-20T10:14:31.893Z,10.06133035216808
2022-12-20T10:17:35.706Z,10.277135185394219
2022-12-20T10:21:24.689Z,10.542395996252253
2022-12-20T10:24:18.906Z,10.759486534841653
2022-12-20T10:27:20.155Z,10.90721116287541
2022-12-20T10:31:18.065Z,11.27267008072231
2022-12-20T10:34:17.095Z,11.422322399909262
2022-12-20T10:37:16.990Z,11.596381845657016
2022-12-20T10:41:22.221Z,11.911745013191922
2022-12-20T10:44:22.993Z,12.072959601731053
2022-12-20T10:47:30.532Z,12.291980677037008
2022-12-20T10:51:18.712Z,12.568808657795671
2022-12-20T10:54:23.402Z,12.75828537289135
2022-12-20T10:57:20.533Z,12.899590299390638
2022-12-20T11:01:19.247Z,13.108336616272936
2022-12-20T11:04:26.924Z,13.336352372824422
2022-12-20T11:07:25.499Z,13.532895991892383
2022-12-20T11:11:19.283Z,13.703747980565186
2022-12-20T11:14:19.909Z,13.906073120121437
2022-12-20T11:17:27.762Z,13.998564762774913
2022-12-20T11:21:28.489Z,14.157213841639258
2022-12-20T11:24:29.857Z,14.283105615813929
2022-12-20T11:27:28.956Z,14.425697530209527
2022-12-20T11:31:24.409Z,14.569574283601924
2022-12-20T11:34:28.226Z,14.675555073781652
2022-12-20T11:37:20.553Z,14.771901354106376
2022-12-20T11:41:27.647Z,14.813651440689227
2022-12-20T11:44:26.664Z,14.914494036761244
2022-12-20T11:47:36.900Z,15.014052123732927
2022-12-20T11:51:26.573Z,15.058371565334165
2022-12-20T11:54:25.809Z,15.077640894522483
2022-12-20T11:57:24.651Z,15.179126095786705
2022-12-20T12:01:18.569Z,15.310157789380536
2022-12-20T12:04:20.395Z,15.326857920788461
2022-12-20T12:07:21.184Z,15.455320572853088
2022-12-20T12:12:04.086Z,15.597914329657579
2022-12-20T12:14:33.108Z,15.71096179162014
2022-12-20T12:17:24.514Z,15.764273995856001
2022-12-20T12:21:23.202Z,15.996150332939942
2022-12-20T12:24:22.215Z,15.97238458692309
2022-12-20T12:27:22.740Z,16.0494627047593
2022-12-20T12:31:20.653Z,16.18756116298173
2022-12-20T12:34:47.448Z,16.194626671147944
2022-12-20T12:37:34.000Z,16.28326672944031
2022-12-20T12:41:38.725Z,16.396315045382018
2022-12-20T12:44:40.671Z,16.43035803175626
2022-12-20T12:47:22.052Z,16.497159400635063
2022-12-20T12:51:24.946Z,16.61341959260908
2022-12-20T12:54:21.283Z,16.68279038585979
2022-12-20T12:57:18.142Z,16.75408820086195
2022-12-20T13:01:47.688Z,16.74638032626863
2022-12-20T13:04:27.967Z,16.836305570602782
2022-12-20T13:07:27.195Z,16.89989561860939
2022-12-20T13:11:29.404Z,16.87677195963197
2022-12-20T13:14:49.101Z,16.921092311182655
2022-12-20T13:17:50.864Z,17.007163780392148
2022-12-20T13:21:30.446Z,16.97312057758545
2022-12-20T13:31:33.900Z,16.90888815424778
2022-12-20T13:34:37.387Z,16.937792739122234
2022-12-20T13:37:55.043Z,16.91274209836565
2022-12-20T13:41:40.448Z,16.90567653427461
2022-12-20T13:44:34.537Z,16.893472379413378
2022-12-20T13:47:31.826Z,16.93586576651078
2022-12-20T13:51:19.795Z,16.942289008708123
2022-12-20T13:54:25.066Z,16.887049140672115
2022-12-20T13:57:20.973Z,16.93393879394025
2022-12-20T14:01:17.395Z,16.953208521487248
2022-12-20T14:04:18.332Z,16.94357365720216
2022-12-20T14:07:18.540Z,16.896041675037214
2022-12-20T14:11:21.468Z,16.918523014849416
2022-12-20T14:14:17.258Z,16.89154540774325
2022-12-20T14:17:21.696Z,16.8555752774133
2022-12-20T14:21:17.772Z,16.766934659972684
2022-12-20T14:24:21.605Z,16.69563683487513
2022-12-20T14:27:17.370Z,16.721329738362783
2022-12-20T14:31:26.014Z,16.568457069758825
2022-12-20T14:34:25.939Z,16.55239903128386
2022-12-20T14:37:26.703Z,16.533129388865564
2022-12-20T14:41:35.069Z,16.465685672631754
2022-12-20T14:44:21.072Z,16.391818802853596
2022-12-20T14:47:22.454Z,16.313455754570896
2022-12-20T14:51:20.379Z,16.204261455897722
2022-12-20T14:54:47.786Z,16.20747305104169
2022-12-20T14:57:23.633Z,16.17728406117676
2022-12-20T15:01:19.579Z,16.01028132000938
2022-12-20T15:04:30.991Z,15.953115067695853
2022-12-20T15:07:29.620Z,15.852913633688967
2022-12-20T15:11:22.776Z,15.805382222923162
2022-12-20T15:14:26.973Z,15.587637294645901
2022-12-20T15:17:16.826Z,15.495786345926991
2022-12-20T15:21:28.010Z,15.330069484873183
2022-12-20T15:24:18.920Z,15.331354110538905
2022-12-20T15:27:16.401Z,15.17398760185497
2022-12-20T15:31:18.480Z,15.105260273496333
2022-12-20T15:34:23.319Z,15.067363918446063
2022-12-20T15:37:18.211Z,15.015336744923934
2022-12-20T15:41:21.027Z,14.868247736749254
2022-12-20T15:44:20.043Z,14.707028180768338
2022-12-20T15:47:17.170Z,14.525897387916576
2022-12-20T15:51:20.387Z,14.355686156847515
2022-12-20T15:54:23.055Z,14.197036730906348
2022-12-20T15:57:17.036Z,13.965164992050267
2022-12-20T16:01:20.229Z,13.759628212102688
2022-12-20T16:04:18.186Z,13.757059005300107
2022-12-20T16:07:17.059Z,13.6575022977363
2022-12-20T16:11:21.120Z,13.462243007911548
2022-12-20T16:14:18.941Z,13.276618612185121
2022-12-20T16:17:17.175Z,13.249642088014298
2022-12-20T16:21:19.235Z,13.226519359395388
2022-12-20T16:24:19.677Z,13.13980917956369
2022-12-20T16:27:17.117Z,13.028049514474787
2022-12-20T16:31:23.238Z,12.858483388980767
2022-12-20T16:34:17.798Z,12.700478875487988
2022-12-20T16:37:17.352Z,12.574589297488364
2022-12-20T16:41:18.943Z,12.430073415674633
2022-12-20T16:44:17.074Z,12.200775355620227
2022-12-20T16:47:16.984Z,12.12819653860206
2022-12-20T16:51:23.713Z,12.042129698102144
2022-12-20T16:54:20.079Z,11.890549490988269
2022-12-20T16:57:16.880Z,11.807694315345088
2022-12-20T17:01:19.486Z,11.663821942079176
2022-12-20T17:04:18.639Z,11.675383106499885
2022-12-20T17:07:16.891Z,11.493616080848733
2022-12-20T17:11:21.833Z,11.427460681346655
2022-12-20T17:14:18.394Z,11.386996722905678
2022-12-20T17:17:17.793Z,11.263035819705056
2022-12-20T17:31:23.941Z,10.905926599855684
2022-12-20T17:34:18.679Z,10.748567767534405
2022-12-20T17:37:17.868Z,10.68562431103528
2022-12-20T17:41:25.834Z,10.654794878888424
2022-12-20T17:44:19.620Z,10.55781069191662
2022-12-20T17:47:17.504Z,10.456972938590116
2022-12-20T17:51:20.095Z,10.439631425428615
2022-12-20T17:54:19.216Z,10.346501133675702
2022-12-20T17:57:17.039Z,10.323379145021681
2022-12-20T18:01:20.015Z,10.138403447956444
2022-12-20T18:04:16.792Z,10.13454979161179
2022-12-20T18:07:16.809Z,10.059403525612378
2022-12-20T18:11:16.777Z,10.050411668893593
2022-12-20T18:14:16.702Z,9.891769771936016
2022-12-20T18:17:18.291Z,9.823688719049096
2022-12-20T18:21:18.873Z,9.778729561192813
2022-12-20T18:24:17.982Z,9.6836731293708
2022-12-20T18:27:18.489Z,9.67789267389171
2022-12-20T18:31:19.069Z,9.681746310836843
2022-12-20T18:34:16.398Z,9.56421045765892
2022-12-20T18:37:16.505Z,9.572559994116546
2022-12-20T18:41:19.128Z,9.560999097687546
2022-12-20T18:44:16.798Z,9.49548737908708
2022-12-20T18:47:16.690Z,9.483926492480624
2022-12-20T18:51:20.256Z,9.385016745074335
2022-12-20T18:54:17.017Z,9.377951767243577
2022-12-20T18:57:16.456Z,9.28931845575571
2022-12-20T19:01:19.618Z,9.247570911506136
2022-12-20T19:04:24.015Z,9.187839843143957
2022-12-20T19:07:17.007Z,9.166644957372863
2022-12-20T19:11:19.704Z,9.09856444870029
2022-12-20T19:14:16.723Z,9.02984172289871
2022-12-20T19:17:16.962Z,9.027914918252737
2022-12-20T19:21:17.985Z,8.916160318812853
2022-12-20T19:24:16.670Z,8.911664447003568
2022-12-20T19:27:16.501Z,8.814682123650073
2022-12-20T19:31:21.564Z,8.760089470684761
2022-12-20T19:34:17.079Z,8.73118749123978
2022-12-20T19:37:18.543Z,8.68173301443785
2022-12-20T19:41:17.064Z,8.654757856637298
2022-12-20T19:44:16.367Z,8.593100383215642
2022-12-20T19:47:16.393Z,8.585393201984697
2022-12-20T19:51:17.040Z,8.517313129551258
2022-12-20T19:54:16.403Z,8.413908588973664
2022-12-20T19:57:16.433Z,8.345828645242818
2022-12-20T20:01:18.134Z,8.285455907699452
2022-12-20T20:04:16.850Z,8.298943430686268
2022-12-20T20:07:17.178Z,8.241782037502798
2022-12-20T20:11:18.533Z,8.226367735394978
2022-12-20T20:14:17.306Z,8.265545758384178
2022-12-20T20:17:17.543Z,8.234074886121471
2022-12-20T20:21:19.227Z,8.191043302943944
2022-12-20T20:24:16.870Z,8.109476029657618
2022-12-20T20:27:16.746Z,8.051030233275378
2022-12-20T20:31:17.637Z,8.088923657406212
2022-12-20T20:34:16.916Z,7.993226735431017
2022-12-20T20:37:17.120Z,7.966251782375911
2022-12-20T20:41:17.030Z,7.94248813990207
2022-12-20T20:44:17.759Z,7.919366764011011
2022-12-20T20:47:16.532Z,7.929642930346108
2022-12-20T20:51:17.234Z,7.862847869977213
2022-12-20T20:54:17.244Z,7.896887654211605
2022-12-20T20:57:17.041Z,7.876977590184197
2022-12-20T21:01:16.645Z,7.869912729805582
2022-12-20T21:04:16.824Z,7.749167928399766
2022-12-20T21:07:17.409Z,7.762013112398927
2022-12-20T21:11:16.573Z,7.769720223671539
2022-12-20T21:14:16.847Z,7.6592516913373405
2022-12-20T21:17:16.437Z,7.68558429439081
2022-12-20T21:21:16.267Z,7.705494316408658
2022-12-20T21:24:16.757Z,7.6515445894507135
2022-12-20T21:27:16.675Z,7.6663165353086695
2022-12-20T21:31:18.403Z,7.603375217495431
2022-12-20T21:34:16.834Z,7.5385071703469295
2022-12-20T21:37:16.617Z,7.564197480501389
2022-12-20T21:41:16.893Z,7.519881700034693
2022-12-20T21:44:16.530Z,7.52887330591484
2022-12-20T21:47:16.285Z,7.526946533151204
2022-12-20T21:51:18.354Z,7.494191402431261
2022-12-20T21:54:16.391Z,7.45758274091786
2022-12-20T21:57:16.683Z,7.3965683378949505
2022-12-20T22:01:19.537Z,7.425469892105684
2022-12-20T22:04:19.316Z,7.3817964359655885
2022-12-20T22:07:17.276Z,7.3773006402037025
2022-12-20T22:11:17.596Z,7.330415926251225
2022-12-20T22:14:16.423Z,7.329131413881259
2022-12-20T22:17:16.184Z,7.293807330835352
2022-12-20T22:21:17.455Z,7.277750933998322
2022-12-20T22:24:16.594Z,7.251418449338326
2022-12-20T22:27:16.667Z,7.256556494525375
2022-12-20T22:31:17.090Z,7.213525375071913
2022-12-20T22:34:16.850Z,7.194257716261563
2022-12-20T22:37:16.907Z,7.175632316635256
2022-12-20T22:41:18.474Z,7.18847741941654
2022-12-20T22:44:16.994Z,7.192973205819726
2022-12-20T22:47:16.915Z,7.18847741941654
2022-12-20T22:51:18.573Z,7.155722410919043
2022-12-20T22:54:17.031Z,7.130674471225302
2022-12-20T22:57:17.188Z,7.134527999958754
2022-12-20T23:01:19.064Z,7.127463197405814
2022-12-20T23:04:17.300Z,7.113975848605423
2022-12-20T23:07:16.793Z,7.100488501810469
2022-12-20T23:31:16.190Z,7.043327863844115
2022-12-20T23:34:16.505Z,7.0471813888668295
2022-12-20T23:37:16.795Z,7.031767289758227
2022-12-20T23:41:15.820Z,7.029198273494785
2022-12-20T23:44:16.192Z,7.027913765390349
2022-12-20T23:47:18.854Z,7.029840527553825
2022-12-20T23:51:16.569Z,7.004150368739284
2022-12-20T23:54:19.676Z,6.995158814873139
2022-12-20T23:57:16.661Z,6.966257397768731
